KNKX/NKX METAR and TAF weather

Enter ICAO airport designator
Station Type Date Time Source
KNKX METAR 2019/06/16 19:55 UTC NOAA

KNKX 161955Z 27006KT 10SM OVC016 21/14 A2990 RMK AO2 SLP118 T02110144 $


Station Type Date Time Source
KNKX Decoded METAR 2019/06/16 19:55 UTC NOAA

MCAS MIRAMAR, CA, United States (KNKX) 32-52N 117-09W 146M
Jun 16, 2019 - 03:55 PM EDT / 2019.06.16 1955 UTC
Wind: from the W (270 degrees) at 7 MPH (6 KT):0
Visibility: 10 mile(s):0
Sky conditions: overcast
Temperature: 70.0 F (21.1 C)
Dew Point: 57.9 F (14.4 C)
Relative Humidity: 65%
Pressure (altimeter): 29.9 in. Hg (1012 hPa)
ob: KNKX 161955Z 27006KT 10SM OVC016 21/14 A2990 RMK AO2 SLP118 T02110144
cycle: 20

Station Type Date Time Source
KNKX TAF 2019/06/16 15:59 UTC NOAA

TAF KNKX 1615/1715 VRB05KT 9999 OVC080 QNH2986INS
BECMG 1617/1619 25008KT 9999 BKN020 QNH2982INS T21/1621Z T17/1712Z

Example: see airport list